createdAt,value
2018-05-24T00:00:23.732Z,5.37
2018-05-24T00:02:52.529Z,5.93
2018-05-24T00:05:21.087Z,5.10
2018-05-24T00:07:50.335Z,5.77
2018-05-24T00:10:23.753Z,3.53
2018-05-24T00:12:52.305Z,4.57
2018-05-24T00:15:20.545Z,6.57
2018-05-24T00:17:48.773Z,7.83
2018-05-24T00:20:17.332Z,5.73
2018-05-24T00:22:46.319Z,6.43
2018-05-24T00:25:14.522Z,6.73
2018-05-24T00:27:48.336Z,7.63
2018-05-24T00:30:17.027Z,6.50
2018-05-24T00:32:45.688Z,4.07
2018-05-24T00:35:14.440Z,6.57
2018-05-24T00:37:43.435Z,6.37
2018-05-24T00:40:11.841Z,5.60
2018-05-24T00:42:43.564Z,5.87
2018-05-24T00:45:12.808Z,4.57
2018-05-24T00:47:41.520Z,4.77
2018-05-24T00:50:10.583Z,5.07
2018-05-24T00:52:38.895Z,3.70
2018-05-24T00:55:18.551Z,3.47
2018-05-24T00:57:47.422Z,5.67
2018-05-24T01:00:17.909Z,12.33
2018-05-24T01:02:46.696Z,4.10
2018-05-24T01:05:15.739Z,6.47
2018-05-24T01:07:46.960Z,7.17
2018-05-24T01:10:15.622Z,5.27
2018-05-24T01:12:47.743Z,6.00
2018-05-24T01:15:16.707Z,5.63
2018-05-24T01:17:45.939Z,7.60
2018-05-24T01:20:14.298Z,6.30
2018-05-24T01:22:42.726Z,4.80
2018-05-24T01:25:17.090Z,4.63
2018-05-24T01:27:46.594Z,5.87
2018-05-24T01:30:14.873Z,8.43
2018-05-24T01:32:45.857Z,5.00
2018-05-24T01:35:14.323Z,5.20
2018-05-24T01:37:50.123Z,6.10
2018-05-24T01:40:18.672Z,4.93
2018-05-24T01:42:47.255Z,4.47
2018-05-24T01:45:15.734Z,4.77
2018-05-24T01:47:44.739Z,7.43
2018-05-24T01:50:13.408Z,5.73
2018-05-24T01:52:42.758Z,5.00
2018-05-24T01:55:11.479Z,5.70
2018-05-24T01:57:40.249Z,10.33
2018-05-24T02:00:09.101Z,3.63
2018-05-24T02:02:38.004Z,4.40
2018-05-24T02:05:06.612Z,7.60
2018-05-24T02:07:35.315Z,7.50
2018-05-24T02:10:07.147Z,8.00
2018-05-24T02:12:35.506Z,6.03
2018-05-24T02:15:03.679Z,5.63
2018-05-24T02:17:35.733Z,3.70
2018-05-24T02:20:04.549Z,5.70
2018-05-24T02:22:32.869Z,4.23
2018-05-24T02:25:01.431Z,5.57
2018-05-24T02:27:32.209Z,6.07
2018-05-24T02:30:00.893Z,4.50
2018-05-24T02:32:31.835Z,4.57
2018-05-24T02:35:01.005Z,6.23
2018-05-24T02:37:29.395Z,4.37
2018-05-24T02:39:58.599Z,5.43
2018-05-24T02:42:27.546Z,4.43
2018-05-24T02:44:55.723Z,6.37
2018-05-24T02:47:25.757Z,6.33
2018-05-24T02:49:54.385Z,4.47
2018-05-24T02:52:26.512Z,3.77
2018-05-24T02:54:55.614Z,4.20
2018-05-24T02:57:24.034Z,3.47
2018-05-24T02:59:52.225Z,4.60
2018-05-24T03:02:20.641Z,4.43
2018-05-24T03:04:49.963Z,4.80
2018-05-24T03:07:18.949Z,8.03
2018-05-24T03:09:48.567Z,4.97
2018-05-24T03:12:17.059Z,6.93
2018-05-24T03:14:45.549Z,7.73
2018-05-24T03:17:13.806Z,4.93
2018-05-24T03:19:41.888Z,6.53
2018-05-24T03:22:09.853Z,7.37
2018-05-24T03:24:55.514Z,4.03
2018-05-24T03:27:23.718Z,4.60
2018-05-24T03:29:51.784Z,6.30
2018-05-24T03:32:20.080Z,6.33
2018-05-24T03:34:48.156Z,6.67
2018-05-24T03:37:16.653Z,7.10
2018-05-24T03:39:46.078Z,8.67
2018-05-24T03:42:14.372Z,10.60
2018-05-24T03:44:43.055Z,8.90
2018-05-24T03:47:11.350Z,8.43
2018-05-24T03:49:40.755Z,6.13
2018-05-24T03:52:08.789Z,10.37
2018-05-24T03:54:36.860Z,11.10
2018-05-24T03:57:05.030Z,11.10
2018-05-24T03:59:59.774Z,6.37
2018-05-24T04:02:39.718Z,10.67
2018-05-24T04:05:08.163Z,10.17
2018-05-24T04:07:37.028Z,9.17
2018-05-24T04:10:05.861Z,10.70
2018-05-24T04:12:34.845Z,12.07
2018-05-24T04:15:03.089Z,8.03
2018-05-24T04:17:31.851Z,9.13
2018-05-24T04:20:02.004Z,12.90
2018-05-24T04:22:30.521Z,9.70
2018-05-24T04:24:59.030Z,9.20
2018-05-24T04:27:27.520Z,7.90
2018-05-24T04:29:55.523Z,12.83
2018-05-24T04:32:23.644Z,9.17
2018-05-24T04:34:52.465Z,11.33
2018-05-24T04:37:20.946Z,9.53
2018-05-24T04:39:51.925Z,9.77
2018-05-24T04:42:20.397Z,8.87
2018-05-24T04:44:52.120Z,8.53
2018-05-24T04:47:20.118Z,11.27
2018-05-24T04:49:53.996Z,8.53
2018-05-24T04:52:22.015Z,9.80
2018-05-24T04:54:49.967Z,11.73
2018-05-24T04:57:18.346Z,13.27
2018-05-24T04:59:48.114Z,11.27
2018-05-24T05:02:16.414Z,8.40
2018-05-24T05:04:45.094Z,8.47
2018-05-24T05:07:14.572Z,8.27
2018-05-24T05:09:42.836Z,8.80
2018-05-24T05:12:11.512Z,9.47
2018-05-24T05:14:39.745Z,11.03
2018-05-24T05:17:07.944Z,9.03
2018-05-24T05:19:36.004Z,9.30
2018-05-24T05:22:04.465Z,7.80
2018-05-24T05:24:32.936Z,10.97
2018-05-24T05:27:01.553Z,9.23
2018-05-24T05:29:34.594Z,11.00
2018-05-24T05:32:02.779Z,8.23
2018-05-24T05:34:31.461Z,8.80
2018-05-24T05:37:00.015Z,9.03
2018-05-24T05:39:28.286Z,11.63
2018-05-24T05:41:59.551Z,10.10
2018-05-24T05:44:28.192Z,6.93
2018-05-24T05:46:57.658Z,7.70
2018-05-24T05:49:26.770Z,8.17
2018-05-24T05:54:42.856Z,8.13
2018-05-24T05:57:12.296Z,6.80
2018-05-24T05:59:40.816Z,10.80
2018-05-24T06:02:11.477Z,8.57
2018-05-24T06:04:40.412Z,9.37
2018-05-24T06:07:08.998Z,8.57
2018-05-24T06:09:37.731Z,9.13
2018-05-24T06:12:07.016Z,9.07
2018-05-24T06:14:35.980Z,8.17
2018-05-24T06:17:08.746Z,6.37
2018-05-24T06:19:37.394Z,8.97
2018-05-24T06:22:06.398Z,8.83
2018-05-24T06:24:35.166Z,7.20
2018-05-24T06:27:03.798Z,7.07
2018-05-24T06:29:32.747Z,6.27
2018-05-24T06:32:01.340Z,8.13
2018-05-24T06:34:30.132Z,7.13
2018-05-24T06:36:58.544Z,7.03
2018-05-24T06:39:27.572Z,9.50
2018-05-24T06:41:56.739Z,9.77
2018-05-24T06:44:24.849Z,9.13
2018-05-24T06:46:53.106Z,8.60
2018-05-24T06:49:21.947Z,7.37
2018-05-24T06:51:50.355Z,8.17
2018-05-24T06:54:18.490Z,8.80
2018-05-24T06:56:46.970Z,10.00
2018-05-24T06:59:15.256Z,10.13
2018-05-24T07:01:43.480Z,7.57
2018-05-24T07:04:11.656Z,9.43
2018-05-24T07:06:40.076Z,11.80
2018-05-24T07:09:08.608Z,12.90
2018-05-24T07:11:37.252Z,8.47
2018-05-24T07:14:05.473Z,11.13
2018-05-24T07:16:34.928Z,8.23
2018-05-24T07:19:03.555Z,10.37
2018-05-24T07:21:32.263Z,8.77
2018-05-24T07:24:00.931Z,10.00
2018-05-24T07:26:29.671Z,10.00
2018-05-24T07:28:58.724Z,12.03
2018-05-24T07:31:27.687Z,12.40
2018-05-24T07:33:56.182Z,11.87
2018-05-24T07:36:24.607Z,16.17
2018-05-24T07:38:53.281Z,10.10
2018-05-24T07:41:22.373Z,11.60
2018-05-24T07:43:51.781Z,11.93
2018-05-24T07:46:20.755Z,13.37
2018-05-24T07:48:50.073Z,10.70
2018-05-24T07:51:19.881Z,12.30
2018-05-24T07:53:48.881Z,13.60
2018-05-24T07:56:18.065Z,12.87
2018-05-24T07:58:46.724Z,11.47
2018-05-24T08:01:15.696Z,12.60
2018-05-24T08:03:44.565Z,9.77
2018-05-24T08:06:13.632Z,13.70
2018-05-24T08:08:42.771Z,14.50
2018-05-24T08:11:12.866Z,12.53
2018-05-24T08:13:42.441Z,12.90
2018-05-24T08:16:11.915Z,11.47
2018-05-24T08:18:40.786Z,14.67
2018-05-24T08:21:13.041Z,13.50
2018-05-24T08:23:42.037Z,12.50
2018-05-24T08:26:10.546Z,11.20
2018-05-24T08:28:39.359Z,10.67
2018-05-24T08:31:08.143Z,10.20
2018-05-24T08:33:39.383Z,14.17
2018-05-24T08:36:08.247Z,10.13
2018-05-24T08:38:37.112Z,17.07
2018-05-24T08:41:06.932Z,11.67
2018-05-24T08:43:35.360Z,10.50
2018-05-24T08:46:04.452Z,9.70
2018-05-24T08:48:33.166Z,10.60
2018-05-24T08:51:02.128Z,9.93
2018-05-24T08:53:30.768Z,9.70
2018-05-24T08:55:59.456Z,10.43
2018-05-24T08:58:28.270Z,10.47
2018-05-24T09:00:57.503Z,13.53
2018-05-24T09:03:27.276Z,12.30
2018-05-24T09:05:56.032Z,11.20
2018-05-24T09:08:24.992Z,10.23
2018-05-24T09:10:53.674Z,11.73
2018-05-24T09:13:22.106Z,11.57
2018-05-24T09:15:50.844Z,10.37
2018-05-24T09:18:19.000Z,14.07
2018-05-24T09:20:47.187Z,10.47
2018-05-24T09:23:15.307Z,13.63
2018-05-24T09:25:43.703Z,17.17
2018-05-24T09:28:11.880Z,14.80
2018-05-24T09:30:40.084Z,16.07
2018-05-24T09:33:08.457Z,16.33
2018-05-24T09:35:41.033Z,17.50
2018-05-24T09:38:09.932Z,16.73
2018-05-24T09:40:42.308Z,15.70
2018-05-24T09:43:11.063Z,15.47
2018-05-24T09:45:39.406Z,18.33
2018-05-24T09:48:09.145Z,17.67
2018-05-24T09:50:37.914Z,17.20
2018-05-24T09:53:07.078Z,15.77
2018-05-24T09:55:35.608Z,16.47
2018-05-24T09:58:07.947Z,13.17
2018-05-24T10:00:36.188Z,20.10
2018-05-24T10:03:07.945Z,16.97
2018-05-24T10:05:36.919Z,15.70
2018-05-24T10:08:05.950Z,16.07
2018-05-24T10:10:34.627Z,16.23
2018-05-24T10:13:07.124Z,17.93
2018-05-24T10:15:35.731Z,17.43
2018-05-24T10:18:03.852Z,17.63
2018-05-24T10:20:32.511Z,19.37
2018-05-24T10:23:01.378Z,15.47
2018-05-24T10:25:29.809Z,17.27
2018-05-24T10:27:59.451Z,16.00
2018-05-24T10:30:27.743Z,16.13
2018-05-24T10:32:55.870Z,16.20
2018-05-24T10:35:24.454Z,15.97
2018-05-24T10:37:52.700Z,15.10
2018-05-24T10:40:20.928Z,15.27
2018-05-24T10:42:49.028Z,13.97
2018-05-24T10:45:19.800Z,14.27
2018-05-24T10:47:48.424Z,12.30
2018-05-24T10:50:16.575Z,17.47
2018-05-24T10:52:44.944Z,18.80
2018-05-24T10:55:13.102Z,13.27
2018-05-24T10:57:41.176Z,15.20
2018-05-24T11:00:09.755Z,12.30
2018-05-24T11:02:38.037Z,15.43
2018-05-24T11:05:06.469Z,15.60
2018-05-24T11:07:34.962Z,14.63
2018-05-24T11:10:08.745Z,11.87
2018-05-24T11:12:37.640Z,14.93
2018-05-24T11:15:06.208Z,14.17
2018-05-24T11:17:34.448Z,12.07
2018-05-24T11:20:03.319Z,16.03
2018-05-24T11:22:31.773Z,12.17
2018-05-24T11:25:00.053Z,10.60
2018-05-24T11:27:28.711Z,11.17
2018-05-24T11:29:56.962Z,12.23
2018-05-24T11:32:24.906Z,12.47
2018-05-24T11:34:54.071Z,9.60
2018-05-24T11:37:22.259Z,9.70
2018-05-24T11:39:50.480Z,10.13
2018-05-24T11:42:18.526Z,9.30
2018-05-24T11:44:46.621Z,9.90
2018-05-24T11:47:14.779Z,9.77
2018-05-24T11:49:43.023Z,13.87
2018-05-24T11:52:11.559Z,11.57
2018-05-24T11:54:39.975Z,8.73
2018-05-24T11:57:08.499Z,9.83
2018-05-24T11:59:36.560Z,11.23
2018-05-24T12:02:05.272Z,12.10
2018-05-24T12:04:34.092Z,10.17
2018-05-24T12:07:02.301Z,8.77
2018-05-24T12:09:30.905Z,8.77
2018-05-24T12:11:59.885Z,9.73
2018-05-24T12:14:28.499Z,10.13
2018-05-24T12:16:56.789Z,9.17
2018-05-24T12:19:24.784Z,8.40
2018-05-24T12:21:53.481Z,10.10
2018-05-24T12:24:22.459Z,9.90
2018-05-24T12:26:51.269Z,9.40
2018-05-24T12:29:20.095Z,9.10
2018-05-24T12:31:49.964Z,9.83
2018-05-24T12:34:19.021Z,9.47
2018-05-24T12:36:47.699Z,13.90
2018-05-24T12:39:16.479Z,7.73
2018-05-24T12:41:45.975Z,9.20
2018-05-24T12:44:14.457Z,9.57
2018-05-24T12:46:43.351Z,8.60
2018-05-24T12:49:19.256Z,9.60
2018-05-24T12:51:48.647Z,9.90
2018-05-24T12:54:17.535Z,9.95
2018-05-24T12:56:46.676Z,12.13
2018-05-24T12:59:15.361Z,9.80
2018-05-24T13:01:44.267Z,8.93
2018-05-24T13:04:13.235Z,8.75
2018-05-24T13:06:41.665Z,9.63
2018-05-24T13:09:10.836Z,10.07
2018-05-24T13:11:39.386Z,8.70
2018-05-24T13:14:08.099Z,8.37
2018-05-24T13:16:37.107Z,9.70
2018-05-24T13:19:06.127Z,9.43
2018-05-24T13:21:35.061Z,8.00
2018-05-24T13:24:03.398Z,9.13
2018-05-24T13:26:34.547Z,7.83
2018-05-24T13:29:03.237Z,12.13
2018-05-24T13:31:31.610Z,6.47
2018-05-24T13:34:00.579Z,10.10
2018-05-24T13:36:32.701Z,6.67
2018-05-24T13:39:01.125Z,5.83
2018-05-24T13:41:29.947Z,6.60
2018-05-24T13:43:59.523Z,5.90
2018-05-24T13:46:27.773Z,5.67
2018-05-24T13:49:01.088Z,7.30
2018-05-24T13:51:29.409Z,4.43
2018-05-24T13:53:58.575Z,6.60
2018-05-24T13:56:26.751Z,5.73
2018-05-24T13:58:54.883Z,3.97
2018-05-24T14:01:26.598Z,4.33
2018-05-24T14:03:54.407Z,5.67
2018-05-24T14:06:30.164Z,5.13
2018-05-24T14:08:58.607Z,6.03
2018-05-24T14:11:37.659Z,5.47
2018-05-24T14:14:05.813Z,5.40
2018-05-24T14:16:33.750Z,5.90
2018-05-24T14:19:01.873Z,7.93
2018-05-24T14:21:30.744Z,5.10
2018-05-24T14:23:59.018Z,4.43
2018-05-24T14:26:27.049Z,7.23
2018-05-24T14:28:54.886Z,4.20
2018-05-24T14:31:27.409Z,5.63
2018-05-24T14:33:55.592Z,4.87
2018-05-24T14:36:23.587Z,4.57
2018-05-24T14:38:53.662Z,4.00
2018-05-24T14:41:22.260Z,4.40
2018-05-24T14:43:50.454Z,5.12
2018-05-24T14:46:19.064Z,5.40
2018-05-24T14:48:46.855Z,6.33
2018-05-24T14:51:15.274Z,5.77
2018-05-24T14:53:43.777Z,8.60
2018-05-24T14:56:11.640Z,6.20
2018-05-24T14:58:40.955Z,5.60
2018-05-24T15:01:16.300Z,5.10
2018-05-24T15:03:44.174Z,4.63
2018-05-24T15:06:12.229Z,6.90
2018-05-24T15:08:40.372Z,7.70
2018-05-24T15:11:08.648Z,4.70
2018-05-24T15:13:48.335Z,6.10
2018-05-24T15:16:17.763Z,5.50
2018-05-24T15:18:46.322Z,7.10
2018-05-24T15:21:14.648Z,6.77
2018-05-24T15:24:03.491Z,5.00
2018-05-24T15:26:32.035Z,5.60
2018-05-24T15:29:00.260Z,6.03
2018-05-24T15:31:28.489Z,6.37
2018-05-24T15:33:59.015Z,7.63
2018-05-24T15:36:27.596Z,7.33
2018-05-24T15:38:56.815Z,5.97
2018-05-24T15:41:25.503Z,5.90
2018-05-24T15:43:53.943Z,5.93
2018-05-24T15:46:26.879Z,9.53
2018-05-24T15:48:55.627Z,8.07
2018-05-24T15:51:27.074Z,7.23
2018-05-24T15:53:55.007Z,11.07
2018-05-24T15:56:23.447Z,6.50
2018-05-24T15:58:53.900Z,6.30
2018-05-24T16:01:22.137Z,6.97
2018-05-24T16:03:50.171Z,6.23
2018-05-24T16:06:18.884Z,8.27
2018-05-24T16:08:47.020Z,8.17
2018-05-24T16:11:15.238Z,9.40
2018-05-24T16:13:43.372Z,7.37
2018-05-24T16:16:11.874Z,7.60
2018-05-24T16:18:40.432Z,7.30
2018-05-24T16:21:08.528Z,8.43
2018-05-24T16:23:36.702Z,8.33
2018-05-24T16:26:04.851Z,6.57
2018-05-24T16:28:33.784Z,9.90
2018-05-24T16:31:01.836Z,6.00
2018-05-24T16:33:30.291Z,9.57
2018-05-24T16:35:58.836Z,6.20
2018-05-24T16:38:27.377Z,7.00
2018-05-24T16:40:55.905Z,6.77
2018-05-24T16:43:23.895Z,7.00
2018-05-24T16:45:52.995Z,6.73
2018-05-24T16:48:21.479Z,6.23
2018-05-24T16:50:49.735Z,7.00
2018-05-24T16:53:17.921Z,7.13
2018-05-24T16:55:46.843Z,6.67
2018-05-24T16:58:14.897Z,7.27
2018-05-24T17:00:43.074Z,7.10
2018-05-24T17:03:11.178Z,6.50
2018-05-24T17:05:39.106Z,7.40
2018-05-24T17:08:08.286Z,6.90
2018-05-24T17:10:36.626Z,6.47
2018-05-24T17:13:04.507Z,6.90
2018-05-24T17:15:33.148Z,7.30
2018-05-24T17:18:01.486Z,7.20
2018-05-24T17:20:29.615Z,8.20
2018-05-24T17:22:58.148Z,8.03
2018-05-24T17:25:27.401Z,7.60
2018-05-24T17:27:55.335Z,7.67
2018-05-24T17:30:23.629Z,8.10
2018-05-24T17:32:51.812Z,9.33
2018-05-24T17:35:23.416Z,8.63
2018-05-24T17:37:51.253Z,12.83
2018-05-24T17:40:19.142Z,8.77
2018-05-24T17:42:46.944Z,8.23
2018-05-24T17:45:14.919Z,8.00
2018-05-24T17:47:42.659Z,10.37
2018-05-24T17:50:10.613Z,8.70
2018-05-24T17:52:38.701Z,9.30
2018-05-24T17:55:06.866Z,8.03
2018-05-24T17:57:34.912Z,11.97
2018-05-24T18:00:05.112Z,8.77
2018-05-24T18:02:33.352Z,9.23
2018-05-24T18:05:02.695Z,8.63
2018-05-24T18:07:30.951Z,8.23
2018-05-24T18:10:01.379Z,8.53
2018-05-24T18:12:29.999Z,8.77
2018-05-24T18:14:58.252Z,9.30
2018-05-24T18:17:26.498Z,8.73
2018-05-24T18:19:54.924Z,9.30
2018-05-24T18:22:23.489Z,8.87
2018-05-24T18:24:52.140Z,8.87
2018-05-24T18:27:20.749Z,7.93
2018-05-24T18:29:48.885Z,11.00
2018-05-24T18:32:17.031Z,8.47
2018-05-24T18:34:45.316Z,9.57
2018-05-24T18:37:14.255Z,9.07
2018-05-24T18:39:42.589Z,8.33
2018-05-24T18:42:11.181Z,10.20
2018-05-24T18:44:40.426Z,8.77
2018-05-24T18:47:08.490Z,7.97
2018-05-24T18:49:38.933Z,9.07
2018-05-24T18:52:07.548Z,9.33
2018-05-24T18:54:35.755Z,8.87
2018-05-24T18:57:04.076Z,8.40
2018-05-24T18:59:37.934Z,8.90
2018-05-24T19:02:06.012Z,9.47
2018-05-24T19:04:34.771Z,9.63
2018-05-24T19:07:02.893Z,9.90
2018-05-24T19:09:32.197Z,9.87
2018-05-24T19:12:00.357Z,10.63
2018-05-24T19:14:28.534Z,9.17
2018-05-24T19:16:56.569Z,8.93
2018-05-24T19:19:24.950Z,9.33
2018-05-24T19:21:53.174Z,9.10
2018-05-24T19:24:21.257Z,9.87
2018-05-24T19:26:50.041Z,10.10
2018-05-24T19:29:18.056Z,10.40
2018-05-24T19:31:46.654Z,10.10
2018-05-24T19:34:15.145Z,10.00
2018-05-24T19:36:45.091Z,9.57
2018-05-24T19:39:13.391Z,10.33
2018-05-24T19:41:42.385Z,10.17
2018-05-24T19:44:10.589Z,9.13
2018-05-24T19:46:38.984Z,10.03
2018-05-24T19:49:07.661Z,9.47
2018-05-24T19:51:35.962Z,9.27
2018-05-24T19:54:04.542Z,9.30
2018-05-24T19:56:32.540Z,10.60
2018-05-24T19:59:01.508Z,9.37
2018-05-24T20:01:29.684Z,9.70
2018-05-24T20:03:58.418Z,9.53
2018-05-24T20:06:27.531Z,9.13
2018-05-24T20:09:19.575Z,9.40
2018-05-24T20:11:48.483Z,9.43
2018-05-24T20:14:19.118Z,9.33
2018-05-24T20:16:47.891Z,9.17
2018-05-24T20:19:16.631Z,9.63
2018-05-24T20:22:04.547Z,9.93
2018-05-24T20:24:33.478Z,9.07
2018-05-24T20:27:01.935Z,9.70
2018-05-24T20:29:30.657Z,9.10
2018-05-24T20:31:59.252Z,10.40
2018-05-24T20:34:28.051Z,8.50
2018-05-24T20:36:56.898Z,9.13
2018-05-24T20:39:29.704Z,10.60
2018-05-24T20:41:58.089Z,9.17
2018-05-24T20:44:26.736Z,9.50
2018-05-24T20:46:55.206Z,10.50
2018-05-24T20:49:23.932Z,9.63
2018-05-24T20:51:52.121Z,9.87
2018-05-24T20:54:21.076Z,9.93
2018-05-24T20:56:49.560Z,9.57
2018-05-24T20:59:26.479Z,10.27
2018-05-24T21:01:54.807Z,10.03
2018-05-24T21:04:23.626Z,10.23
2018-05-24T21:06:52.030Z,9.50
2018-05-24T21:09:26.774Z,10.37
2018-05-24T21:11:55.377Z,9.90
2018-05-24T21:14:23.384Z,10.83
2018-05-24T21:16:51.725Z,10.07
2018-05-24T21:19:20.565Z,10.47
2018-05-24T21:21:50.213Z,11.17
2018-05-24T21:24:19.165Z,10.90
2018-05-24T21:26:48.147Z,12.13
2018-05-24T21:29:17.211Z,11.33
2018-05-24T21:31:45.410Z,10.90
2018-05-24T21:34:13.995Z,12.13
2018-05-24T21:36:42.565Z,11.27
2018-05-24T21:39:11.222Z,12.17
2018-05-24T21:41:41.533Z,12.83
2018-05-24T21:44:10.292Z,11.23
2018-05-24T21:46:38.297Z,11.90
2018-05-24T21:49:06.772Z,13.10
2018-05-24T21:51:35.066Z,12.67
2018-05-24T21:54:03.963Z,13.10
2018-05-24T21:56:32.694Z,13.10
2018-05-24T21:59:01.572Z,14.33
2018-05-24T22:01:30.216Z,14.40
2018-05-24T22:03:59.867Z,13.43
2018-05-24T22:06:28.046Z,12.93
2018-05-24T22:08:56.529Z,16.20
2018-05-24T22:11:24.848Z,15.77
2018-05-24T22:13:53.151Z,15.87
2018-05-24T22:16:21.744Z,16.07
2018-05-24T22:18:50.165Z,16.53
2018-05-24T22:21:18.483Z,16.07
2018-05-24T22:23:46.906Z,15.87
2018-05-24T22:26:15.281Z,15.73
2018-05-24T22:28:43.939Z,16.83
2018-05-24T22:31:12.903Z,15.87
2018-05-24T22:33:41.823Z,16.40
2018-05-24T22:36:10.240Z,16.23
2018-05-24T22:38:38.948Z,16.83
2018-05-24T22:41:07.746Z,17.70
2018-05-24T22:43:36.249Z,18.23
2018-05-24T22:46:04.732Z,17.47
2018-05-24T22:51:28.460Z,18.73
2018-05-24T22:53:57.282Z,18.80
2018-05-24T22:56:25.734Z,18.20
2018-05-24T22:58:54.079Z,17.60
2018-05-24T23:01:23.817Z,19.67
2018-05-24T23:03:52.829Z,20.50
2018-05-24T23:06:21.413Z,19.23
2018-05-24T23:08:52.095Z,20.97
2018-05-24T23:11:21.618Z,24.33
2018-05-24T23:13:50.271Z,22.73
2018-05-24T23:16:18.751Z,21.87
2018-05-24T23:18:47.325Z,21.57
2018-05-24T23:21:15.939Z,23.67
2018-05-24T23:23:46.499Z,24.10
2018-05-24T23:26:15.200Z,21.93
2018-05-24T23:28:44.235Z,24.57
2018-05-24T23:31:12.847Z,24.13
2018-05-24T23:33:41.505Z,24.23
2018-05-24T23:36:10.331Z,24.40
2018-05-24T23:38:43.766Z,24.90
2018-05-24T23:41:12.438Z,27.37
2018-05-24T23:43:41.668Z,25.77
2018-05-24T23:46:10.395Z,27.47
2018-05-24T23:48:38.855Z,25.60
2018-05-24T23:51:08.537Z,27.13
2018-05-24T23:53:38.259Z,27.37
2018-05-24T23:56:06.904Z,27.83
2018-05-24T23:58:41.316Z,28.00
